sensor_id;sensor_type;location;lat;lon;timestamp;pressure;altitude;pressure_sealevel;temperature;humidity
28510;BME280;15723;55.684;37.928;2023-03-22T00:00:37;99490.25;;;7.85;68.85
28510;BME280;15723;55.684;37.928;2023-03-22T00:03:04;99488.44;;;7.86;69.02
28510;BME280;15723;55.684;37.928;2023-03-22T00:05:30;99498.38;;;7.69;69.53
28510;BME280;15723;55.684;37.928;2023-03-22T00:07:57;99499.50;;;7.81;69.21
28510;BME280;15723;55.684;37.928;2023-03-22T00:10:23;99489.22;;;8.02;68.28
28510;BME280;15723;55.684;37.928;2023-03-22T00:12:50;99494.22;;;7.94;68.67
28510;BME280;15723;55.684;37.928;2023-03-22T00:15:16;99497.75;;;7.80;68.96
28510;BME280;15723;55.684;37.928;2023-03-22T00:17:42;99504.16;;;7.63;69.18
28510;BME280;15723;55.684;37.928;2023-03-22T00:20:09;99491.94;;;7.72;69.19
28510;BME280;15723;55.684;37.928;2023-03-22T00:22:36;99495.66;;;7.85;68.82
28510;BME280;15723;55.684;37.928;2023-03-22T00:25:02;99498.09;;;7.74;69.39
28510;BME280;15723;55.684;37.928;2023-03-22T00:27:28;99501.38;;;7.95;68.71
28510;BME280;15723;55.684;37.928;2023-03-22T00:29:54;99503.28;;;8.23;67.63
28510;BME280;15723;55.684;37.928;2023-03-22T00:32:20;99501.94;;;7.86;68.65
28510;BME280;15723;55.684;37.928;2023-03-22T00:34:48;99500.00;;;7.42;70.24
28510;BME280;15723;55.684;37.928;2023-03-22T00:37:14;99502.34;;;7.94;69.06
28510;BME280;15723;55.684;37.928;2023-03-22T00:39:44;99504.44;;;7.89;69.41
28510;BME280;15723;55.684;37.928;2023-03-22T00:42:10;99512.97;;;7.51;70.40
28510;BME280;15723;55.684;37.928;2023-03-22T00:44:36;99513.75;;;7.53;70.58
28510;BME280;15723;55.684;37.928;2023-03-22T00:47:02;99520.88;;;7.70;70.31
28510;BME280;15723;55.684;37.928;2023-03-22T00:49:28;99521.25;;;7.94;69.48
28510;BME280;15723;55.684;37.928;2023-03-22T00:51:55;99519.53;;;7.93;69.10
28510;BME280;15723;55.684;37.928;2023-03-22T00:54:21;99522.81;;;7.98;68.91
28510;BME280;15723;55.684;37.928;2023-03-22T00:56:47;99526.78;;;8.06;68.98
28510;BME280;15723;55.684;37.928;2023-03-22T00:59:14;99535.84;;;7.75;69.76
28510;BME280;15723;55.684;37.928;2023-03-22T01:01:44;99541.50;;;7.87;69.51
28510;BME280;15723;55.684;37.928;2023-03-22T01:04:10;99538.44;;;7.77;70.29
28510;BME280;15723;55.684;37.928;2023-03-22T01:06:43;99542.41;;;8.01;68.80
28510;BME280;15723;55.684;37.928;2023-03-22T01:09:09;99548.56;;;7.89;69.61
28510;BME280;15723;55.684;37.928;2023-03-22T01:11:40;99551.13;;;7.13;71.49
28510;BME280;15723;55.684;37.928;2023-03-22T01:14:06;99548.00;;;7.52;70.99
28510;BME280;15723;55.684;37.928;2023-03-22T01:16:37;99548.16;;;7.34;72.19
28510;BME280;15723;55.684;37.928;2023-03-22T01:19:03;99556.00;;;7.54;71.73
28510;BME280;15723;55.684;37.928;2023-03-22T01:21:30;99548.47;;;7.75;71.42
28510;BME280;15723;55.684;37.928;2023-03-22T01:23:56;99557.13;;;7.34;73.79
28510;BME280;15723;55.684;37.928;2023-03-22T01:26:22;99559.94;;;7.48;72.85
28510;BME280;15723;55.684;37.928;2023-03-22T01:28:48;99558.28;;;7.46;73.74
28510;BME280;15723;55.684;37.928;2023-03-22T01:31:14;99559.59;;;7.55;73.62
28510;BME280;15723;55.684;37.928;2023-03-22T01:33:40;99571.69;;;7.32;74.06
28510;BME280;15723;55.684;37.928;2023-03-22T01:36:06;99577.34;;;7.59;73.57
28510;BME280;15723;55.684;37.928;2023-03-22T01:38:34;99578.16;;;7.45;74.04
28510;BME280;15723;55.684;37.928;2023-03-22T01:41:00;99576.47;;;7.42;74.33
28510;BME280;15723;55.684;37.928;2023-03-22T01:43:29;99583.72;;;7.26;74.74
28510;BME280;15723;55.684;37.928;2023-03-22T01:45:56;99574.31;;;7.49;73.82
28510;BME280;15723;55.684;37.928;2023-03-22T01:48:27;99585.78;;;7.37;74.04
28510;BME280;15723;55.684;37.928;2023-03-22T01:53:31;99596.97;;;7.62;73.82
28510;BME280;15723;55.684;37.928;2023-03-22T01:55:59;99592.06;;;7.69;73.12
28510;BME280;15723;55.684;37.928;2023-03-22T01:58:29;99588.69;;;7.49;73.60
28510;BME280;15723;55.684;37.928;2023-03-22T02:01:00;99600.88;;;7.88;72.67
28510;BME280;15723;55.684;37.928;2023-03-22T02:06:28;99604.44;;;7.73;73.23
28510;BME280;15723;55.684;37.928;2023-03-22T02:09:05;99605.59;;;7.53;74.13
28510;BME280;15723;55.684;37.928;2023-03-22T02:11:33;99602.00;;;7.68;73.54
28510;BME280;15723;55.684;37.928;2023-03-22T02:17:24;99615.25;;;7.57;74.23
28510;BME280;15723;55.684;37.928;2023-03-22T02:30:59;99625.63;;;7.65;73.79
28510;BME280;15723;55.684;37.928;2023-03-22T02:48:49;99622.91;;;7.33;74.41
28510;BME280;15723;55.684;37.928;2023-03-22T02:51:21;99629.25;;;7.32;74.51
28510;BME280;15723;55.684;37.928;2023-03-22T02:53:51;99622.13;;;7.31;74.72
28510;BME280;15723;55.684;37.928;2023-03-22T02:56:28;99646.50;;;6.97;75.35
28510;BME280;15723;55.684;37.928;2023-03-22T02:58:55;99644.41;;;7.19;74.80
28510;BME280;15723;55.684;37.928;2023-03-22T03:01:30;99654.03;;;7.07;74.79
28510;BME280;15723;55.684;37.928;2023-03-22T03:04:02;99647.97;;;7.19;74.80
28510;BME280;15723;55.684;37.928;2023-03-22T03:06:33;99663.53;;;6.81;75.08
28510;BME280;15723;55.684;37.928;2023-03-22T03:09:03;99655.47;;;7.30;73.89
28510;BME280;15723;55.684;37.928;2023-03-22T03:11:30;99660.44;;;7.38;73.67
28510;BME280;15723;55.684;37.928;2023-03-22T03:13:56;99651.06;;;7.45;73.95
28510;BME280;15723;55.684;37.928;2023-03-22T03:16:24;99656.88;;;7.37;73.73
28510;BME280;15723;55.684;37.928;2023-03-22T03:19:26;99668.78;;;7.33;73.75
28510;BME280;15723;55.684;37.928;2023-03-22T03:21:49;99664.34;;;7.32;73.10
28510;BME280;15723;55.684;37.928;2023-03-22T03:26:57;99664.75;;;7.58;72.35
28510;BME280;15723;55.684;37.928;2023-03-22T03:29:33;99673.69;;;7.42;71.99
28510;BME280;15723;55.684;37.928;2023-03-22T03:32:05;99672.59;;;7.46;72.55
28510;BME280;15723;55.684;37.928;2023-03-22T03:34:39;99680.34;;;7.52;72.93
28510;BME280;15723;55.684;37.928;2023-03-22T03:37:12;99686.84;;;6.82;74.22
28510;BME280;15723;55.684;37.928;2023-03-22T03:39:42;99689.94;;;6.75;74.32
28510;BME280;15723;55.684;37.928;2023-03-22T03:42:12;99693.75;;;6.53;75.29
28510;BME280;15723;55.684;37.928;2023-03-22T03:44:40;99694.34;;;7.10;73.59
28510;BME280;15723;55.684;37.928;2023-03-22T03:47:09;99700.28;;;7.17;73.17
28510;BME280;15723;55.684;37.928;2023-03-22T03:49:37;99703.50;;;7.08;73.01
28510;BME280;15723;55.684;37.928;2023-03-22T03:52:04;99704.03;;;6.97;73.32
28510;BME280;15723;55.684;37.928;2023-03-22T03:54:31;99714.69;;;6.83;73.67
28510;BME280;15723;55.684;37.928;2023-03-22T03:56:57;99716.50;;;7.00;72.75
28510;BME280;15723;55.684;37.928;2023-03-22T03:59:23;99716.56;;;7.15;72.57
28510;BME280;15723;55.684;37.928;2023-03-22T04:01:51;99709.53;;;7.13;72.06
28510;BME280;15723;55.684;37.928;2023-03-22T04:04:28;99713.09;;;7.13;72.34
28510;BME280;15723;55.684;37.928;2023-03-22T04:06:59;99723.50;;;7.37;71.40
28510;BME280;15723;55.684;37.928;2023-03-22T04:09:30;99717.88;;;7.08;72.12
28510;BME280;15723;55.684;37.928;2023-03-22T04:12:05;99719.41;;;7.30;72.04
28510;BME280;15723;55.684;37.928;2023-03-22T04:14:34;99723.38;;;7.22;71.48
28510;BME280;15723;55.684;37.928;2023-03-22T04:17:07;99723.31;;;7.24;71.00
28510;BME280;15723;55.684;37.928;2023-03-22T04:19:33;99732.19;;;7.26;72.00
28510;BME280;15723;55.684;37.928;2023-03-22T04:21:59;99727.94;;;7.71;70.94
28510;BME280;15723;55.684;37.928;2023-03-22T04:24:26;99734.19;;;7.22;72.41
28510;BME280;15723;55.684;37.928;2023-03-22T04:26:52;99730.66;;;7.38;71.70
28510;BME280;15723;55.684;37.928;2023-03-22T04:29:34;99740.66;;;7.69;71.30
28510;BME280;15723;55.684;37.928;2023-03-22T04:32:20;99736.06;;;7.87;70.95
28510;BME280;15723;55.684;37.928;2023-03-22T04:34:51;99745.47;;;7.79;71.06
28510;BME280;15723;55.684;37.928;2023-03-22T04:37:19;99745.22;;;7.84;71.00
28510;BME280;15723;55.684;37.928;2023-03-22T04:39:53;99756.06;;;7.51;72.17
28510;BME280;15723;55.684;37.928;2023-03-22T04:42:33;99755.84;;;7.04;73.28
28510;BME280;15723;55.684;37.928;2023-03-22T04:45:19;99759.69;;;6.82;73.80
28510;BME280;15723;55.684;37.928;2023-03-22T04:47:52;99776.66;;;6.31;74.67
28510;BME280;15723;55.684;37.928;2023-03-22T04:50:19;99783.00;;;5.92;76.17
28510;BME280;15723;55.684;37.928;2023-03-22T04:52:50;99783.34;;;6.95;73.27
28510;BME280;15723;55.684;37.928;2023-03-22T04:55:16;99790.34;;;7.16;71.75
28510;BME280;15723;55.684;37.928;2023-03-22T04:57:43;99791.84;;;6.51;73.47
28510;BME280;15723;55.684;37.928;2023-03-22T05:00:10;99796.38;;;6.50;73.62
28510;BME280;15723;55.684;37.928;2023-03-22T05:02:36;99792.47;;;6.75;72.93
28510;BME280;15723;55.684;37.928;2023-03-22T05:05:08;99791.63;;;7.09;71.87
28510;BME280;15723;55.684;37.928;2023-03-22T05:07:38;99792.16;;;6.81;72.01
28510;BME280;15723;55.684;37.928;2023-03-22T05:10:05;99804.53;;;6.85;71.92
28510;BME280;15723;55.684;37.928;2023-03-22T05:12:31;99798.41;;;6.81;71.79
28510;BME280;15723;55.684;37.928;2023-03-22T05:15:16;99810.47;;;6.92;71.72
28510;BME280;15723;55.684;37.928;2023-03-22T05:17:43;99812.06;;;6.96;71.41
28510;BME280;15723;55.684;37.928;2023-03-22T05:20:09;99815.66;;;7.13;70.83
28510;BME280;15723;55.684;37.928;2023-03-22T05:22:38;99825.31;;;7.00;70.92
28510;BME280;15723;55.684;37.928;2023-03-22T05:25:06;99823.00;;;6.93;70.93
28510;BME280;15723;55.684;37.928;2023-03-22T05:27:33;99826.81;;;6.88;70.69
28510;BME280;15723;55.684;37.928;2023-03-22T05:30:10;99828.31;;;6.77;70.45
28510;BME280;15723;55.684;37.928;2023-03-22T05:32:46;99829.34;;;6.74;70.51
28510;BME280;15723;55.684;37.928;2023-03-22T05:35:14;99833.88;;;7.43;68.96
28510;BME280;15723;55.684;37.928;2023-03-22T05:37:46;99845.78;;;6.87;69.64
28510;BME280;15723;55.684;37.928;2023-03-22T05:40:16;99845.59;;;7.09;69.26
28510;BME280;15723;55.684;37.928;2023-03-22T05:42:44;99849.84;;;6.96;69.39
28510;BME280;15723;55.684;37.928;2023-03-22T05:45:21;99844.63;;;7.10;69.87
28510;BME280;15723;55.684;37.928;2023-03-22T05:47:57;99859.63;;;7.67;67.78
28510;BME280;15723;55.684;37.928;2023-03-22T05:50:24;99865.59;;;7.39;67.49
28510;BME280;15723;55.684;37.928;2023-03-22T05:52:51;99862.09;;;7.37;67.20
28510;BME280;15723;55.684;37.928;2023-03-22T05:55:24;99863.84;;;7.21;67.74
28510;BME280;15723;55.684;37.928;2023-03-22T05:57:55;99868.94;;;7.10;67.48
28510;BME280;15723;55.684;37.928;2023-03-22T06:00:23;99877.06;;;7.44;66.62
28510;BME280;15723;55.684;37.928;2023-03-22T06:03:15;99879.81;;;7.43;66.79
28510;BME280;15723;55.684;37.928;2023-03-22T06:05:45;99883.38;;;7.09;67.46
28510;BME280;15723;55.684;37.928;2023-03-22T06:08:11;99879.66;;;6.75;67.62
28510;BME280;15723;55.684;37.928;2023-03-22T06:10:39;99886.03;;;6.92;67.62
28510;BME280;15723;55.684;37.928;2023-03-22T06:13:05;99891.81;;;7.20;67.00
28510;BME280;15723;55.684;37.928;2023-03-22T06:15:33;99889.91;;;7.22;65.74
28510;BME280;15723;55.684;37.928;2023-03-22T06:17:59;99889.72;;;7.08;66.04
28510;BME280;15723;55.684;37.928;2023-03-22T06:20:29;99893.81;;;7.51;65.38
28510;BME280;15723;55.684;37.928;2023-03-22T06:23:01;99893.22;;;7.62;64.98
28510;BME280;15723;55.684;37.928;2023-03-22T06:25:27;99891.09;;;7.51;64.85
28510;BME280;15723;55.684;37.928;2023-03-22T06:27:54;99898.63;;;7.27;65.01
28510;BME280;15723;55.684;37.928;2023-03-22T06:30:21;99903.81;;;7.49;64.39
28510;BME280;15723;55.684;37.928;2023-03-22T06:33:18;99899.56;;;7.78;63.53
28510;BME280;15723;55.684;37.928;2023-03-22T06:35:49;99905.53;;;7.84;63.59
28510;BME280;15723;55.684;37.928;2023-03-22T06:38:23;99906.00;;;8.26;63.44
28510;BME280;15723;55.684;37.928;2023-03-22T06:40:49;99901.47;;;8.26;61.74
28510;BME280;15723;55.684;37.928;2023-03-22T06:43:15;99892.78;;;8.37;61.69
28510;BME280;15723;55.684;37.928;2023-03-22T06:45:45;99893.00;;;8.65;59.48
28510;BME280;15723;55.684;37.928;2023-03-22T06:48:12;99894.19;;;9.07;59.31
28510;BME280;15723;55.684;37.928;2023-03-22T06:51:04;99898.84;;;8.58;59.29
28510;BME280;15723;55.684;37.928;2023-03-22T06:53:32;99897.06;;;9.04;59.89
28510;BME280;15723;55.684;37.928;2023-03-22T06:55:59;99901.88;;;8.83;59.38
28510;BME280;15723;55.684;37.928;2023-03-22T06:58:34;99895.38;;;9.17;59.13
28510;BME280;15723;55.684;37.928;2023-03-22T07:01:00;99903.53;;;8.54;58.81
28510;BME280;15723;55.684;37.928;2023-03-22T07:03:31;99901.09;;;8.97;58.09
28510;BME280;15723;55.684;37.928;2023-03-22T07:06:03;99907.59;;;9.40;57.04
28510;BME280;15723;55.684;37.928;2023-03-22T07:08:31;99909.31;;;8.95;56.86
28510;BME280;15723;55.684;37.928;2023-03-22T07:10:58;99905.56;;;9.44;56.31
28510;BME280;15723;55.684;37.928;2023-03-22T07:13:24;99907.25;;;10.05;54.49
28510;BME280;15723;55.684;37.928;2023-03-22T07:15:55;99906.63;;;9.71;55.15
28510;BME280;15723;55.684;37.928;2023-03-22T07:18:38;99913.13;;;9.53;57.33
28510;BME280;15723;55.684;37.928;2023-03-22T07:21:04;99923.25;;;9.35;56.84
28510;BME280;15723;55.684;37.928;2023-03-22T07:23:31;99917.09;;;9.01;57.02
28510;BME280;15723;55.684;37.928;2023-03-22T07:26:03;99921.69;;;9.31;56.90
28510;BME280;15723;55.684;37.928;2023-03-22T07:28:32;99929.13;;;9.12;57.08
28510;BME280;15723;55.684;37.928;2023-03-22T07:31:00;99932.28;;;9.04;56.57
28510;BME280;15723;55.684;37.928;2023-03-22T07:33:28;99937.69;;;9.04;57.34
28510;BME280;15723;55.684;37.928;2023-03-22T07:35:55;99937.09;;;8.99;57.31
28510;BME280;15723;55.684;37.928;2023-03-22T07:38:21;99943.63;;;8.79;57.34
28510;BME280;15723;55.684;37.928;2023-03-22T07:40:47;99952.53;;;8.81;58.22
28510;BME280;15723;55.684;37.928;2023-03-22T07:43:16;99942.13;;;8.89;57.30
28510;BME280;15723;55.684;37.928;2023-03-22T07:45:53;99943.75;;;9.39;55.13
28510;BME280;15723;55.684;37.928;2023-03-22T07:48:37;99949.63;;;9.16;55.95
28510;BME280;15723;55.684;37.928;2023-03-22T07:51:22;99948.09;;;10.01;54.06
28510;BME280;15723;55.684;37.928;2023-03-22T07:53:48;99946.81;;;10.23;53.29
28510;BME280;15723;55.684;37.928;2023-03-22T07:56:15;99942.44;;;12.37;46.32
28510;BME280;15723;55.684;37.928;2023-03-22T07:58:41;99933.44;;;14.52;41.97
28510;BME280;15723;55.684;37.928;2023-03-22T08:01:08;99919.69;;;17.27;38.23
28510;BME280;15723;55.684;37.928;2023-03-22T08:04:01;99932.94;;;14.69;40.21
28510;BME280;15723;55.684;37.928;2023-03-22T08:06:45;99925.38;;;14.73;39.71
28510;BME280;15723;55.684;37.928;2023-03-22T08:09:12;99920.16;;;18.19;36.07
28510;BME280;15723;55.684;37.928;2023-03-22T08:11:38;99925.00;;;17.19;36.27
28510;BME280;15723;55.684;37.928;2023-03-22T08:14:04;99927.28;;;17.93;34.79
28510;BME280;15723;55.684;37.928;2023-03-22T08:16:33;99921.13;;;20.89;30.74
28510;BME280;15723;55.684;37.928;2023-03-22T08:19:01;99919.38;;;18.65;32.27
28510;BME280;15723;55.684;37.928;2023-03-22T08:21:30;99926.56;;;15.56;37.82
28510;BME280;15723;55.684;37.928;2023-03-22T08:23:57;99931.69;;;15.61;38.94
28510;BME280;15723;55.684;37.928;2023-03-22T08:26:40;99936.34;;;13.80;40.41
28510;BME280;15723;55.684;37.928;2023-03-22T08:29:14;99942.97;;;13.04;42.28
28510;BME280;15723;55.684;37.928;2023-03-22T08:31:45;99945.34;;;12.21;43.85
28510;BME280;15723;55.684;37.928;2023-03-22T08:34:12;99942.72;;;13.68;42.79
28510;BME280;15723;55.684;37.928;2023-03-22T08:36:37;99948.22;;;13.07;42.14
28510;BME280;15723;55.684;37.928;2023-03-22T08:39:04;99949.06;;;12.46;44.02
28510;BME280;15723;55.684;37.928;2023-03-22T08:41:47;99960.28;;;12.41;43.62
28510;BME280;15723;55.684;37.928;2023-03-22T08:44:12;99946.22;;;12.47;43.25
28510;BME280;15723;55.684;37.928;2023-03-22T08:46:39;99945.53;;;13.31;41.78
28510;BME280;15723;55.684;37.928;2023-03-22T08:49:05;99949.16;;;12.44;44.18
28510;BME280;15723;55.684;37.928;2023-03-22T08:51:39;99945.91;;;12.14;44.83
28510;BME280;15723;55.684;37.928;2023-03-22T08:54:17;99941.56;;;12.99;43.12
28510;BME280;15723;55.684;37.928;2023-03-22T08:56:52;99933.63;;;14.26;41.02
28510;BME280;15723;55.684;37.928;2023-03-22T08:59:44;99941.31;;;12.65;43.04
28510;BME280;15723;55.684;37.928;2023-03-22T09:02:33;99931.47;;;13.72;41.43
28510;BME280;15723;55.684;37.928;2023-03-22T09:05:01;99934.13;;;13.50;42.01
28510;BME280;15723;55.684;37.928;2023-03-22T09:07:28;99935.31;;;13.22;42.10
28510;BME280;15723;55.684;37.928;2023-03-22T09:10:17;99935.69;;;13.41;41.45
28510;BME280;15723;55.684;37.928;2023-03-22T09:12:50;99933.06;;;13.03;42.98
28510;BME280;15723;55.684;37.928;2023-03-22T09:15:16;99931.53;;;13.84;40.78
28510;BME280;15723;55.684;37.928;2023-03-22T09:17:46;99930.75;;;13.10;41.76
28510;BME280;15723;55.684;37.928;2023-03-22T09:20:13;99936.00;;;13.37;42.22
28510;BME280;15723;55.684;37.928;2023-03-22T09:22:42;99930.47;;;14.08;40.34
28510;BME280;15723;55.684;37.928;2023-03-22T09:25:10;99930.22;;;14.58;38.98
28510;BME280;15723;55.684;37.928;2023-03-22T09:27:36;99934.94;;;14.09;39.71
28510;BME280;15723;55.684;37.928;2023-03-22T09:30:02;99928.59;;;14.89;38.58
28510;BME280;15723;55.684;37.928;2023-03-22T09:32:28;99943.00;;;14.57;38.99
28510;BME280;15723;55.684;37.928;2023-03-22T09:35:01;99945.75;;;13.76;39.93
28510;BME280;15723;55.684;37.928;2023-03-22T09:37:35;99942.09;;;13.99;39.30
28510;BME280;15723;55.684;37.928;2023-03-22T09:40:03;99949.81;;;14.05;39.27
28510;BME280;15723;55.684;37.928;2023-03-22T09:42:41;99948.66;;;13.86;39.76
28510;BME280;15723;55.684;37.928;2023-03-22T09:45:21;99949.56;;;14.08;39.22
28510;BME280;15723;55.684;37.928;2023-03-22T09:47:54;99958.06;;;13.82;39.38
28510;BME280;15723;55.684;37.928;2023-03-22T09:50:23;99956.16;;;13.10;40.99
28510;BME280;15723;55.684;37.928;2023-03-22T09:52:50;99965.16;;;12.11;43.31
28510;BME280;15723;55.684;37.928;2023-03-22T09:55:21;99969.44;;;12.40;42.04
28510;BME280;15723;55.684;37.928;2023-03-22T09:57:59;99950.91;;;12.71;41.85
28510;BME280;15723;55.684;37.928;2023-03-22T10:00:37;99958.50;;;13.28;41.31
28510;BME280;15723;55.684;37.928;2023-03-22T10:05:35;99951.47;;;13.12;41.34
28510;BME280;15723;55.684;37.928;2023-03-22T10:10:45;99958.63;;;12.77;41.24
28510;BME280;15723;55.684;37.928;2023-03-22T10:15:50;99955.06;;;13.50;40.40
28510;BME280;15723;55.684;37.928;2023-03-22T10:18:18;99953.47;;;13.34;40.27
28510;BME280;15723;55.684;37.928;2023-03-22T10:21:27;99952.38;;;13.37;40.31
28510;BME280;15723;55.684;37.928;2023-03-22T10:23:48;99946.91;;;13.37;40.30
28510;BME280;15723;55.684;37.928;2023-03-22T10:26:58;99944.03;;;13.51;40.39
28510;BME280;15723;55.684;37.928;2023-03-22T10:31:31;99955.78;;;13.28;40.71
28510;BME280;15723;55.684;37.928;2023-03-22T10:34:05;99947.59;;;13.40;40.17
28510;BME280;15723;55.684;37.928;2023-03-22T10:36:33;99943.91;;;13.29;40.11
28510;BME280;15723;55.684;37.928;2023-03-22T10:39:02;99953.94;;;13.15;40.90
28510;BME280;15723;55.684;37.928;2023-03-22T10:41:29;99955.50;;;13.20;40.45
28510;BME280;15723;55.684;37.928;2023-03-22T10:44:00;99947.69;;;13.02;40.96
28510;BME280;15723;55.684;37.928;2023-03-22T10:46:30;99953.75;;;13.19;40.74
28510;BME280;15723;55.684;37.928;2023-03-22T10:48:58;99955.69;;;13.17;41.08
28510;BME280;15723;55.684;37.928;2023-03-22T10:51:27;99947.13;;;12.97;42.25
28510;BME280;15723;55.684;37.928;2023-03-22T10:53:54;99946.72;;;13.75;40.35
28510;BME280;15723;55.684;37.928;2023-03-22T10:56:22;99942.38;;;14.07;39.63
28510;BME280;15723;55.684;37.928;2023-03-22T10:58:49;99938.13;;;13.92;39.96
28510;BME280;15723;55.684;37.928;2023-03-22T11:01:36;99933.03;;;13.88;40.86
28510;BME280;15723;55.684;37.928;2023-03-22T11:06:28;99945.53;;;13.31;40.25
28510;BME280;15723;55.684;37.928;2023-03-22T11:09:01;99944.44;;;13.58;40.22
28510;BME280;15723;55.684;37.928;2023-03-22T11:11:34;99954.81;;;12.79;40.94
28510;BME280;15723;55.684;37.928;2023-03-22T11:14:05;99955.28;;;12.35;41.63
28510;BME280;15723;55.684;37.928;2023-03-22T11:16:31;99957.81;;;11.86;43.07
28510;BME280;15723;55.684;37.928;2023-03-22T11:19:05;99950.16;;;12.31;42.85
28510;BME280;15723;55.684;37.928;2023-03-22T11:21:31;99948.81;;;12.74;41.61
28510;BME280;15723;55.684;37.928;2023-03-22T11:23:59;99950.13;;;12.81;41.88
28510;BME280;15723;55.684;37.928;2023-03-22T11:26:29;99961.28;;;12.28;42.29
28510;BME280;15723;55.684;37.928;2023-03-22T11:28:59;99956.03;;;12.37;41.75
28510;BME280;15723;55.684;37.928;2023-03-22T11:31:28;99947.09;;;12.73;41.82
28510;BME280;15723;55.684;37.928;2023-03-22T11:34:15;99944.50;;;12.46;42.14
28510;BME280;15723;55.684;37.928;2023-03-22T11:36:44;99929.91;;;13.57;40.53
28510;BME280;15723;55.684;37.928;2023-03-22T11:39:11;99931.66;;;13.82;39.70
28510;BME280;15723;55.684;37.928;2023-03-22T11:41:38;99936.88;;;13.61;39.27
28510;BME280;15723;55.684;37.928;2023-03-22T11:44:06;99938.28;;;13.19;40.28
28510;BME280;15723;55.684;37.928;2023-03-22T11:46:33;99933.19;;;13.73;39.28
28510;BME280;15723;55.684;37.928;2023-03-22T11:49:00;99932.31;;;14.08;38.86
28510;BME280;15723;55.684;37.928;2023-03-22T11:51:28;99932.84;;;13.06;40.27
28510;BME280;15723;55.684;37.928;2023-03-22T11:54:06;99931.66;;;13.34;39.94
28510;BME280;15723;55.684;37.928;2023-03-22T11:56:32;99937.22;;;13.33;40.11
28510;BME280;15723;55.684;37.928;2023-03-22T11:59:04;99930.78;;;13.34;40.03
28510;BME280;15723;55.684;37.928;2023-03-22T12:01:33;99931.94;;;13.19;40.53
28510;BME280;15723;55.684;37.928;2023-03-22T12:04:02;99930.19;;;13.65;39.66
28510;BME280;15723;55.684;37.928;2023-03-22T12:06:33;99934.88;;;13.52;40.02
28510;BME280;15723;55.684;37.928;2023-03-22T12:09:05;99933.00;;;13.29;40.44
28510;BME280;15723;55.684;37.928;2023-03-22T12:11:33;99928.34;;;13.18;40.41
28510;BME280;15723;55.684;37.928;2023-03-22T12:14:02;99930.63;;;12.62;41.43
28510;BME280;15723;55.684;37.928;2023-03-22T12:16:44;99931.38;;;13.26;40.57
28510;BME280;15723;55.684;37.928;2023-03-22T12:21:57;99937.25;;;12.83;42.94
28510;BME280;15723;55.684;37.928;2023-03-22T12:24:25;99942.94;;;12.04;43.71
28510;BME280;15723;55.684;37.928;2023-03-22T12:26:52;99940.00;;;11.95;45.45
28510;BME280;15723;55.684;37.928;2023-03-22T12:29:20;99932.94;;;11.92;45.24
28510;BME280;15723;55.684;37.928;2023-03-22T12:32:00;99942.88;;;12.31;44.40
28510;BME280;15723;55.684;37.928;2023-03-22T12:34:49;99935.22;;;11.98;45.63
28510;BME280;15723;55.684;37.928;2023-03-22T12:37:16;99939.69;;;12.12;46.04
28510;BME280;15723;55.684;37.928;2023-03-22T12:39:45;99937.28;;;12.20;45.91
28510;BME280;15723;55.684;37.928;2023-03-22T12:42:23;99934.69;;;12.06;46.67
28510;BME280;15723;55.684;37.928;2023-03-22T12:44:53;99935.00;;;12.14;46.32
28510;BME280;15723;55.684;37.928;2023-03-22T12:47:24;99939.69;;;12.25;46.56
28510;BME280;15723;55.684;37.928;2023-03-22T12:50:02;99937.94;;;12.24;47.19
28510;BME280;15723;55.684;37.928;2023-03-22T12:55:02;99923.69;;;12.45;45.93
28510;BME280;15723;55.684;37.928;2023-03-22T12:57:28;99929.41;;;12.79;45.45
28510;BME280;15723;55.684;37.928;2023-03-22T12:59:55;99923.00;;;13.17;44.68
28510;BME280;15723;55.684;37.928;2023-03-22T13:02:24;99915.13;;;13.25;44.48
28510;BME280;15723;55.684;37.928;2023-03-22T13:04:55;99911.13;;;13.18;44.00
28510;BME280;15723;55.684;37.928;2023-03-22T13:09:55;99907.66;;;13.39;43.48
28510;BME280;15723;55.684;37.928;2023-03-22T13:18:00;99908.34;;;13.30;42.93
28510;BME280;15723;55.684;37.928;2023-03-22T13:20:19;99911.19;;;12.92;43.61
28510;BME280;15723;55.684;37.928;2023-03-22T13:32:58;99914.44;;;12.35;44.74
28510;BME280;15723;55.684;37.928;2023-03-22T13:46:47;99902.72;;;12.84;43.36
28510;BME280;15723;55.684;37.928;2023-03-22T13:48:49;99901.91;;;12.45;45.00
28510;BME280;15723;55.684;37.928;2023-03-22T13:59:12;99907.22;;;12.60;42.83
28510;BME280;15723;55.684;37.928;2023-03-22T14:01:42;99906.16;;;12.49;43.05
28510;BME280;15723;55.684;37.928;2023-03-22T14:04:12;99906.16;;;12.24;43.12
28510;BME280;15723;55.684;37.928;2023-03-22T14:09:28;99909.00;;;12.23;43.42
28510;BME280;15723;55.684;37.928;2023-03-22T14:11:59;99898.03;;;11.72;43.65
28510;BME280;15723;55.684;37.928;2023-03-22T14:14:28;99895.00;;;11.64;44.21
28510;BME280;15723;55.684;37.928;2023-03-22T14:16:59;99893.66;;;10.90;46.65
28510;BME280;15723;55.684;37.928;2023-03-22T14:19:27;99895.34;;;10.78;46.24
28510;BME280;15723;55.684;37.928;2023-03-22T14:21:56;99892.78;;;10.75;46.27
28510;BME280;15723;55.684;37.928;2023-03-22T14:24:23;99892.34;;;10.54;46.71
28510;BME280;15723;55.684;37.928;2023-03-22T14:26:51;99884.41;;;10.37;47.28
28510;BME280;15723;55.684;37.928;2023-03-22T14:29:19;99890.47;;;9.98;48.29
28510;BME280;15723;55.684;37.928;2023-03-22T14:31:46;99894.50;;;10.21;47.52
28510;BME280;15723;55.684;37.928;2023-03-22T14:34:19;99895.47;;;10.48;47.19
28510;BME280;15723;55.684;37.928;2023-03-22T14:36:46;99904.47;;;10.20;49.11
28510;BME280;15723;55.684;37.928;2023-03-22T14:39:18;99904.78;;;9.86;49.48
28510;BME280;15723;55.684;37.928;2023-03-22T14:41:55;99903.06;;;9.99;49.52
28510;BME280;15723;55.684;37.928;2023-03-22T14:44:22;99892.69;;;9.91;49.90
28510;BME280;15723;55.684;37.928;2023-03-22T14:46:47;99897.06;;;9.94;51.29